Time;durP1;ratioP1;P1;durP2;ratioP2;P2;SDS_P1;SDS_P2;PMS_P1;PMS_P2;Temp;Humidity;BMP_temperature;BMP_pressure;BME280_temperature;BME280_humidity;BME280_pressure;Samples;Min_cycle;Max_cycle;Signal;HPM_P1;HPM_P2
2020/12/16 00:00:08;;;;;;;24.10;19.10;;;;;;;3.47;100.00;96002.00;1061807;27;20479;-80
2020/12/16 00:00:39;;;;;;;27.70;18.80;;;;;;;3.49;100.00;95993.94;1059552;27;20099;-80
2020/12/16 00:01:09;;;;;;;23.48;18.65;;;;;;;3.46;100.00;95997.78;1057483;28;20024;-79
2020/12/16 00:01:40;;;;;;;25.30;19.52;;;;;;;3.50;100.00;95996.34;1057595;28;20071;-79
2020/12/16 00:02:10;;;;;;;25.58;18.92;;;;;;;3.49;100.00;95996.56;1057621;28;20016;-80
2020/12/16 00:02:41;;;;;;;25.52;19.40;;;;;;;3.54;100.00;96001.97;1057637;28;20032;-80
2020/12/16 00:03:11;;;;;;;25.77;19.83;;;;;;;3.55;100.00;96000.16;1057540;28;20023;-80
2020/12/16 00:03:41;;;;;;;26.05;18.30;;;;;;;3.56;100.00;95996.53;1057599;28;20027;-79
2020/12/16 00:04:12;;;;;;;23.08;18.52;;;;;;;3.52;100.00;95999.56;1057549;28;20031;-79
2020/12/16 00:04:42;;;;;;;24.23;19.38;;;;;;;3.55;100.00;96000.16;1057649;28;20020;-80
2020/12/16 00:05:13;;;;;;;25.05;18.85;;;;;;;3.51;100.00;95997.94;1057156;28;20081;-79
2020/12/16 00:05:43;;;;;;;24.48;19.15;;;;;;;3.51;100.00;95995.34;1057268;28;20030;-80
2020/12/16 00:06:15;;;;;;;26.55;19.42;;;;;;;3.52;100.00;95996.94;1057345;28;20027;-80
2020/12/16 00:06:45;;;;;;;24.35;17.65;;;;;;;3.55;100.00;95994.91;1053309;28;20520;-80
2020/12/16 00:07:16;;;;;;;24.55;18.42;;;;;;;3.53;100.00;95995.94;1057273;28;20023;-80
2020/12/16 00:07:46;;;;;;;27.55;19.85;;;;;;;3.45;100.00;95995.38;1057493;28;20457;-80
2020/12/16 00:08:16;;;;;;;26.48;19.48;;;;;;;3.39;100.00;96001.41;1057352;28;20024;-80
2020/12/16 00:08:47;;;;;;;23.77;19.40;;;;;;;3.42;100.00;96001.00;1057627;28;20032;-80
2020/12/16 00:09:17;;;;;;;25.77;19.95;;;;;;;3.40;100.00;95997.78;1057616;28;20460;-79
2020/12/16 00:09:48;;;;;;;27.83;19.35;;;;;;;3.45;100.00;95998.78;1059239;27;20081;-80
2020/12/16 00:10:18;;;;;;;23.42;18.52;;;;;;;3.46;100.00;95997.78;1061943;27;20023;-80
2020/12/16 00:10:49;;;;;;;23.63;18.63;;;;;;;3.49;100.00;95999.19;1061369;27;20031;-79
2020/12/16 00:11:19;;;;;;;26.30;19.60;;;;;;;3.49;100.00;96005.22;1061528;27;20042;-80
2020/12/16 00:11:49;;;;;;;27.63;19.20;;;;;;;3.49;100.00;95996.56;1061555;27;20042;-80
2020/12/16 00:12:20;;;;;;;22.70;17.90;;;;;;;3.51;100.00;96003.19;1061554;27;20375;-80
2020/12/16 00:12:50;;;;;;;25.58;19.13;;;;;;;3.51;100.00;95999.78;1061788;27;20050;-80
2020/12/16 00:13:21;;;;;;;23.35;18.35;;;;;;;3.49;100.00;96002.59;1061845;27;20027;-80
2020/12/16 00:13:51;;;;;;;25.05;19.52;;;;;;;3.47;100.00;96009.06;1061828;27;20031;-80
2020/12/16 00:14:22;;;;;;;26.88;19.92;;;;;;;3.45;100.00;95998.78;1061799;27;20456;-80
2020/12/16 00:14:52;;;;;;;23.65;18.23;;;;;;;3.49;100.00;96007.84;1061707;27;20019;-80
2020/12/16 00:15:22;;;;;;;27.10;20.88;;;;;;;3.52;100.00;96002.19;1061775;27;20023;-80
2020/12/16 00:15:53;;;;;;;24.63;19.42;;;;;;;3.56;99.87;96007.03;1061487;27;20019;-80
2020/12/16 00:16:23;;;;;;;27.67;20.20;;;;;;;3.53;100.00;96001.16;1061445;27;20019;-80
2020/12/16 00:16:54;;;;;;;28.23;19.05;;;;;;;3.55;100.00;96000.94;1061328;27;20464;-80
2020/12/16 00:17:24;;;;;;;22.60;19.05;;;;;;;3.52;100.00;96010.03;1061496;27;20019;-80
2020/12/16 00:17:55;;;;;;;23.13;18.02;;;;;;;3.53;100.00;96009.03;1059712;27;20019;-80
2020/12/16 00:18:25;;;;;;;26.55;18.77;;;;;;;3.52;100.00;96011.84;1057400;28;20529;-80
2020/12/16 00:18:56;;;;;;;27.38;19.45;;;;;;;3.49;100.00;96007.84;1057554;28;20093;-81
2020/12/16 00:19:26;;;;;;;26.92;19.90;;;;;;;3.53;100.00;96010.84;1057535;28;20081;-80
2020/12/16 00:19:56;;;;;;;23.52;18.70;;;;;;;3.50;99.85;96012.06;1057479;28;20094;-80
2020/12/16 00:20:27;;;;;;;24.67;19.27;;;;;;;3.46;100.00;96008.25;1057513;28;20020;-80
2020/12/16 00:20:57;;;;;;;26.98;19.55;;;;;;;3.45;100.00;96005.84;1057455;28;20023;-80
2020/12/16 00:21:28;;;;;;;24.83;19.02;;;;;;;3.45;100.00;96013.72;1057595;28;20032;-79
2020/12/16 00:21:59;;;;;;;27.02;20.20;;;;;;;3.40;100.00;96013.50;1061622;28;20011;-82
2020/12/16 00:22:38;;;;;;;25.55;19.85;;;;;;;3.40;100.00;96013.50;1062298;27;20016;-81
2020/12/16 00:23:10;;;;;;;23.92;19.08;;;;;;;3.41;100.00;96021.16;1062459;28;20000;-81
2020/12/16 00:23:40;;;;;;;27.27;19.65;;;;;;;3.40;100.00;96016.13;1062686;28;20039;-80
2020/12/16 00:24:11;;;;;;;26.63;19.23;;;;;;;3.36;100.00;96015.75;1062396;28;20015;-80
2020/12/16 00:24:41;;;;;;;30.40;20.20;;;;;;;3.41;100.00;96021.16;1063596;27;20015;-79
2020/12/16 00:25:13;;;;;;;23.85;19.33;;;;;;;3.43;100.00;96018.31;1066529;27;20010;-79
2020/12/16 00:25:43;;;;;;;25.55;19.08;;;;;;;3.40;100.00;96019.56;1062934;27;20009;-80
2020/12/16 00:26:14;;;;;;;25.98;19.35;;;;;;;3.41;100.00;96029.03;1062585;28;20031;-79
2020/12/16 00:26:44;;;;;;;26.15;19.52;;;;;;;3.40;100.00;96022.16;1062515;28;20015;-78
2020/12/16 00:27:15;;;;;;;26.17;20.23;;;;;;;3.36;100.00;96026.22;1062458;28;20041;-79
2020/12/16 00:27:45;;;;;;;25.08;19.50;;;;;;;3.38;100.00;96026.81;1062570;28;20050;-79
2020/12/16 00:28:15;;;;;;;26.42;19.80;;;;;;;3.34;100.00;96028.25;1062611;28;20033;-79
2020/12/16 00:28:46;;;;;;;27.83;20.00;;;;;;;3.39;100.00;96032.84;1062634;28;20028;-80
2020/12/16 00:29:16;;;;;;;27.35;20.00;;;;;;;3.40;100.00;96030.03;1062765;27;20015;-79
2020/12/16 00:29:47;;;;;;;25.48;19.60;;;;;;;3.39;100.00;96033.66;1062527;27;20015;-79
2020/12/16 00:30:17;;;;;;;26.45;19.23;;;;;;;3.41;100.00;96026.41;1062701;28;20020;-80
2020/12/16 00:30:48;;;;;;;31.00;20.73;;;;;;;3.39;100.00;96031.03;1062649;28;20083;-79
2020/12/16 00:31:18;;;;;;;28.85;21.05;;;;;;;3.40;100.00;96030.03;1062466;28;20019;-79
2020/12/16 00:31:49;;;;;;;27.85;20.30;;;;;;;3.35;100.00;96031.66;1062403;28;20011;-80
2020/12/16 00:32:19;;;;;;;25.63;19.90;;;;;;;3.32;100.00;96032.88;1059987;28;20004;-80
2020/12/16 00:32:49;;;;;;;28.50;19.23;;;;;;;3.32;100.00;96035.50;1057360;28;20035;-81
2020/12/16 00:33:20;;;;;;;24.73;18.75;;;;;;;3.32;100.00;96037.31;1057163;28;20041;-80
2020/12/16 00:33:50;;;;;;;22.80;18.52;;;;;;;3.35;100.00;96022.00;1057364;28;20028;-80
2020/12/16 00:34:21;;;;;;;26.95;19.35;;;;;;;3.37;100.00;96030.44;1057474;28;20020;-80
2020/12/16 00:34:51;;;;;;;24.20;18.30;;;;;;;3.31;100.00;96028.63;1058061;28;20019;-79
2020/12/16 00:35:21;;;;;;;24.33;18.73;;;;;;;3.36;100.00;96034.09;1057210;28;20031;-82
2020/12/16 00:35:52;;;;;;;24.10;18.88;;;;;;;3.39;100.00;96030.25;1057512;27;20031;-82
2020/12/16 00:36:22;;;;;;;25.45;19.50;;;;;;;3.33;100.00;96026.63;1058350;28;20460;-82
2020/12/16 00:36:54;;;;;;;23.27;19.17;;;;;;;3.29;100.00;96028.03;1057515;28;20047;-80
2020/12/16 00:37:24;;;;;;;24.45;18.80;;;;;;;3.33;100.00;96029.25;1057126;28;20023;-80
2020/12/16 00:37:55;;;;;;;24.77;18.73;;;;;;;3.25;100.00;96026.03;1057237;28;20024;-79
2020/12/16 00:38:25;;;;;;;27.10;19.88;;;;;;;3.21;100.00;96023.03;1060341;27;20023;-79
2020/12/16 00:38:57;;;;;;;25.67;18.48;;;;;;;3.26;100.00;96025.03;1061666;27;20027;-79
2020/12/16 00:39:27;;;;;;;26.17;19.27;;;;;;;3.26;100.00;96023.22;1061804;27;20015;-80
2020/12/16 00:39:57;;;;;;;25.13;19.33;;;;;;;3.21;100.00;96026.47;1061852;27;20019;-79
2020/12/16 00:40:28;;;;;;;25.17;19.65;;;;;;;3.25;100.00;96026.84;1061743;27;20011;-79
2020/12/16 00:40:58;;;;;;;26.98;19.15;;;;;;;3.27;100.00;96029.25;1058617;27;20385;-79
2020/12/16 00:41:30;;;;;;;27.27;19.02;;;;;;;3.25;100.00;96020.81;1057345;28;20040;-79
2020/12/16 00:42:00;;;;;;;23.90;18.73;;;;;;;3.29;100.00;96028.03;1057435;28;20390;-79
2020/12/16 00:42:30;;;;;;;30.90;20.75;;;;;;;3.26;100.00;96025.03;1057497;28;20031;-79
2020/12/16 00:43:01;;;;;;;25.85;20.58;;;;;;;3.29;100.00;96019.38;1057454;28;20036;-79
2020/12/16 00:43:31;;;;;;;24.40;18.75;;;;;;;3.23;100.00;96018.41;1057715;28;20019;-81
2020/12/16 00:44:03;;;;;;;24.88;19.77;;;;;;;3.19;100.00;96017.97;1057876;28;20028;-82
2020/12/16 00:44:33;;;;;;;25.65;19.10;;;;;;;3.18;100.00;96020.81;1057130;28;20114;-81
2020/12/16 00:45:04;;;;;;;24.33;18.98;;;;;;;3.22;100.00;96022.03;1057169;28;20019;-81
2020/12/16 00:45:35;;;;;;;24.52;18.10;;;;;;;3.22;100.00;96017.59;1057080;28;20115;-81
2020/12/16 00:46:05;;;;;;;26.65;19.23;;;;;;;3.24;100.00;96020.00;1057051;28;20027;-80
2020/12/16 00:46:35;;;;;;;25.83;19.40;;;;;;;3.24;100.00;96020.00;1057718;28;20024;-79
2020/12/16 00:47:06;;;;;;;27.02;19.25;;;;;;;3.24;100.00;96020.00;1057138;28;20027;-81
2020/12/16 00:47:36;;;;;;;27.38;20.52;;;;;;;3.21;100.00;96009.94;1057159;28;20457;-80
2020/12/16 00:48:07;;;;;;;24.58;18.80;;;;;;;3.26;100.00;96022.41;1057114;28;20597;-80
2020/12/16 00:48:37;;;;;;;25.73;18.88;;;;;;;3.23;100.00;96018.41;1057104;28;20035;-80
2020/12/16 00:49:07;;;;;;;25.17;19.65;;;;;;;3.26;100.00;96012.75;1057307;28;20023;-80
2020/12/16 00:49:38;;;;;;;25.48;19.27;;;;;;;3.31;100.00;96014.72;1057436;28;20031;-80
2020/12/16 00:50:09;;;;;;;26.08;19.08;;;;;;;3.29;100.00;96012.31;1057392;28;20330;-80
2020/12/16 00:50:40;;;;;;;24.88;18.95;;;;;;;3.31;100.00;96019.97;1057088;28;20049;-81
2020/12/16 00:51:13;;;;;;;24.77;19.92;;;;;;;3.28;100.00;96005.47;1056872;28;20035;-78
2020/12/16 00:51:43;;;;;;;25.23;18.85;;;;;;;3.29;100.00;96016.75;1057367;28;20027;-78
2020/12/16 00:52:13;;;;;;;28.45;19.80;;;;;;;3.30;100.00;96019.16;1057248;27;20015;-78
2020/12/16 00:52:44;;;;;;;26.08;20.08;;;;;;;3.27;100.00;96022.19;1061632;27;20019;-78
2020/12/16 00:53:14;;;;;;;25.92;20.55;;;;;;;3.31;100.00;96019.97;1061606;27;20027;-78
2020/12/16 00:53:45;;;;;;;27.50;19.20;;;;;;;3.25;100.00;96013.75;1061678;27;20023;-78
2020/12/16 00:54:15;;;;;;;20.77;17.73;;;;;;;3.29;100.00;96014.94;1061582;27;20428;-77
2020/12/16 00:54:45;;;;;;;27.40;18.67;;;;;;;3.32;100.00;96022.41;1061622;27;20471;-78
2020/12/16 00:55:16;;;;;;;27.40;18.90;;;;;;;3.28;100.00;96015.94;1061752;27;20023;-78
2020/12/16 00:55:46;;;;;;;23.50;18.40;;;;;;;3.29;100.00;96022.00;1061838;27;20034;-80
2020/12/16 00:56:17;;;;;;;23.30;18.40;;;;;;;3.33;100.00;96018.78;1057600;27;20027;-80
2020/12/16 00:56:47;;;;;;;24.70;19.08;;;;;;;3.35;100.00;96027.22;1057124;28;20027;-80
2020/12/16 00:57:18;;;;;;;25.52;18.48;;;;;;;3.34;100.00;96023.00;1057119;28;20030;-80
2020/12/16 00:57:49;;;;;;;26.38;19.15;;;;;;;3.35;100.00;96022.00;1057136;28;20474;-81
2020/12/16 00:58:19;;;;;;;26.30;19.50;;;;;;;3.39;100.00;96025.00;1057359;28;20016;-81
2020/12/16 00:58:50;;;;;;;25.08;18.98;;;;;;;3.37;100.00;96025.22;1057342;28;20031;-80
2020/12/16 00:59:21;;;;;;;26.45;20.38;;;;;;;3.32;100.00;96025.03;1057268;28;20024;-81
2020/12/16 00:59:51;;;;;;;24.23;17.45;;;;;;;3.37;100.00;96025.22;1057092;28;20026;-79
2020/12/16 01:00:23;;;;;;;24.05;18.55;;;;;;;3.37;100.00;96019.97;1057174;28;20031;-78
2020/12/16 01:00:53;;;;;;;24.75;19.08;;;;;;;3.38;100.00;96029.44;1057372;28;20019;-78
2020/12/16 01:01:24;;;;;;;24.13;17.95;;;;;;;3.39;100.00;96028.41;1056892;28;20016;-80
2020/12/16 01:01:55;;;;;;;23.58;18.33;;;;;;;3.37;100.00;96029.66;1056514;28;20468;-80
2020/12/16 01:02:25;;;;;;;26.92;19.00;;;;;;;3.34;100.00;96030.06;1056968;28;20073;-80
2020/12/16 01:02:55;;;;;;;27.30;20.38;;;;;;;3.34;100.00;96028.25;1057000;28;20032;-81
2020/12/16 01:03:26;;;;;;;23.38;18.33;;;;;;;3.33;100.00;96029.25;1057418;28;20027;-80
2020/12/16 01:03:56;;;;;;;22.80;17.98;;;;;;;3.31;100.00;96030.44;1057301;28;20023;-80
2020/12/16 01:04:27;;;;;;;24.40;18.58;;;;;;;3.29;100.00;96033.28;1057264;28;20057;-80
2020/12/16 01:04:57;;;;;;;24.08;18.95;;;;;;;3.33;100.00;96026.63;1057273;28;20072;-79
2020/12/16 01:05:27;;;;;;;21.35;16.90;;;;;;;3.34;100.00;96027.44;1057190;28;20446;-79
2020/12/16 01:05:58;;;;;;;27.33;19.17;;;;;;;3.29;100.00;96030.66;1057437;28;20529;-79
2020/12/16 01:06:29;;;;;;;23.27;17.88;;;;;;;3.30;100.00;96034.88;1056939;28;20072;-80
2020/12/16 01:07:02;;;;;;;25.15;20.05;;;;;;;3.27;100.00;96035.31;1056963;28;20403;-80
2020/12/16 01:07:35;;;;;;;22.85;18.10;;;;;;;3.24;100.00;96030.47;1057033;28;20030;-81
2020/12/16 01:08:06;;;;;;;25.27;18.15;;;;;;;3.26;100.00;96038.94;1057124;28;20038;-81
2020/12/16 01:08:38;;;;;;;24.63;18.58;;;;;;;3.19;100.00;96038.13;1057293;28;20020;-81
2020/12/16 01:09:08;;;;;;;25.10;19.25;;;;;;;3.18;100.00;96036.50;1057393;27;20507;-81
2020/12/16 01:09:39;;;;;;;25.38;18.35;;;;;;;3.23;100.00;96037.53;1057335;28;20026;-80
2020/12/16 01:10:10;;;;;;;21.65;17.10;;;;;;;3.24;100.00;96038.34;1057313;28;20426;-81
2020/12/16 01:10:40;;;;;;;23.23;17.70;;;;;;;3.22;100.00;96037.75;1057380;28;20016;-80
2020/12/16 01:11:11;;;;;;;24.90;18.77;;;;;;;3.19;100.00;96033.69;1057061;28;20027;-79
2020/12/16 01:11:41;;;;;;;25.08;18.58;;;;;;;3.19;100.00;96038.13;1057325;28;20027;-78
2020/12/16 01:12:12;;;;;;;26.58;18.40;;;;;;;3.18;100.00;96047.00;1057350;28;20387;-79
2020/12/16 01:12:43;;;;;;;27.83;20.45;;;;;;;3.15;100.00;96036.94;1057296;28;20456;-79
2020/12/16 01:13:13;;;;;;;27.67;19.52;;;;;;;3.12;100.00;96037.34;1057207;28;20023;-79
2020/12/16 01:13:43;;;;;;;25.90;19.25;;;;;;;3.12;100.00;96040.78;1056972;28;20019;-79
2020/12/16 01:14:14;;;;;;;25.88;19.15;;;;;;;3.15;100.00;96042.16;1057033;28;20023;-79
2020/12/16 01:14:44;;;;;;;23.35;18.38;;;;;;;3.12;100.00;96043.38;1057023;28;20031;-79
2020/12/16 01:15:19;;;;;;;25.27;19.38;;;;;;;3.09;100.00;96040.38;1057007;28;20031;-79
2020/12/16 01:15:49;;;;;;;26.60;20.08;;;;;;;3.08;100.00;96038.75;1059956;27;20024;-77
2020/12/16 01:16:19;;;;;;;26.25;19.50;;;;;;;3.06;100.00;96044.19;1058710;28;20032;-77
2020/12/16 01:16:50;;;;;;;26.33;20.30;;;;;;;3.03;100.00;96041.19;1057538;28;20529;-77
2020/12/16 01:17:20;;;;;;;24.08;19.23;;;;;;;3.05;100.00;96047.00;1057464;28;20020;-78
2020/12/16 01:17:51;;;;;;;23.55;18.25;;;;;;;3.05;100.00;96047.00;1057551;28;20024;-78
2020/12/16 01:18:21;;;;;;;24.95;19.00;;;;;;;3.03;100.00;96044.59;1057442;28;20356;-78
2020/12/16 01:18:51;;;;;;;25.65;19.73;;;;;;;3.03;100.00;96043.78;1057301;28;20364;-78
2020/12/16 01:19:22;;;;;;;25.38;19.98;;;;;;;3.02;100.00;96044.81;1056929;28;20491;-77
2020/12/16 01:19:52;;;;;;;27.58;20.40;;;;;;;3.05;100.00;96047.00;1057202;28;20024;-77
2020/12/16 01:20:23;;;;;;;26.27;19.10;;;;;;;3.04;100.00;96045.41;1057388;28;20032;-77
2020/12/16 01:20:53;;;;;;;22.98;18.08;;;;;;;3.03;100.00;96043.78;1057090;28;20020;-77
2020/12/16 01:21:23;;;;;;;27.60;18.98;;;;;;;3.05;100.00;96049.63;1057252;28;20024;-77
2020/12/16 01:21:54;;;;;;;26.80;18.83;;;;;;;3.06;100.00;96049.41;1057701;28;20023;-78
2020/12/16 01:22:24;;;;;;;25.92;19.63;;;;;;;3.02;100.00;96044.81;1057282;28;20081;-79
2020/12/16 01:22:55;;;;;;;23.38;17.30;;;;;;;3.09;100.00;96048.25;1056910;28;20016;-79
2020/12/16 01:23:25;;;;;;;26.33;18.80;;;;;;;3.05;100.00;96041.78;1057068;28;20035;-79
2020/12/16 01:23:56;;;;;;;24.17;18.63;;;;;;;3.04;100.00;96040.16;1056848;28;20476;-79
2020/12/16 01:24:26;;;;;;;26.02;19.52;;;;;;;3.00;100.00;96038.97;1057192;28;20032;-78
2020/12/16 01:24:57;;;;;;;29.25;20.35;;;;;;;2.91;100.00;96041.78;1057262;28;20057;-79
2020/12/16 01:25:27;;;;;;;27.63;20.50;;;;;;;2.86;100.00;96038.97;1056978;28;20074;-79
2020/12/16 01:25:58;;;;;;;25.48;19.70;;;;;;;2.87;100.00;96037.97;1056763;28;20038;-79
2020/12/16 01:26:38;;;;;;;26.98;20.33;;;;;;;2.91;100.00;96038.38;1057255;28;20032;-79
2020/12/16 01:27:08;;;;;;;;;;;;;;;2.90;100.00;96029.72;1057628;28;20028;-79
2020/12/16 01:27:38;;;;;;;23.77;17.80;;;;;;;2.92;100.00;96038.16;1057655;28;19908;-78
2020/12/16 01:28:10;;;;;;;28.23;19.45;;;;;;;2.94;100.00;96027.47;1057612;28;20094;-79
2020/12/16 01:28:41;;;;;;;22.77;17.60;;;;;;;2.98;100.00;96030.53;1058519;28;20049;-78
2020/12/16 01:29:11;;;;;;;23.17;18.92;;;;;;;2.99;100.00;96026.88;1057730;28;20053;-78
2020/12/16 01:29:42;;;;;;;24.33;18.92;;;;;;;3.03;100.00;96036.75;1057278;28;20019;-78
2020/12/16 01:30:12;;;;;;;23.17;18.30;;;;;;;3.03;100.00;96028.09;1056824;28;20031;-78
2020/12/16 01:30:42;;;;;;;26.45;19.52;;;;;;;3.06;100.00;96027.66;1056982;28;20118;-79
2020/12/16 01:31:13;;;;;;;26.90;19.15;;;;;;;3.08;100.00;96028.28;1056786;28;20412;-79
2020/12/16 01:31:45;;;;;;;24.98;19.42;;;;;;;3.07;100.00;96031.91;1056722;28;20589;-78
2020/12/16 01:32:16;;;;;;;21.73;18.08;;;;;;;3.09;100.00;96029.91;1057289;28;20039;-78
2020/12/16 01:32:46;;;;;;;21.77;18.33;;;;;;;3.09;100.00;96027.28;1057195;28;20027;-82
2020/12/16 01:33:17;;;;;;;25.95;19.40;;;;;;;3.09;100.00;96029.91;1052579;28;20020;-82
2020/12/16 01:33:47;;;;;;;22.98;18.50;;;;;;;3.07;100.00;96031.91;1052739;28;20094;-81
2020/12/16 01:34:19;;;;;;;23.90;18.95;;;;;;;3.13;100.00;96023.25;1052642;28;20027;-80
2020/12/16 01:34:50;;;;;;;25.10;19.50;;;;;;;3.12;100.00;96032.91;1053072;28;20052;-80
2020/12/16 01:35:20;;;;;;;31.50;18.52;;;;;;;3.12;100.00;96027.69;1057188;28;20031;-80
2020/12/16 01:35:50;;;;;;;22.98;18.15;;;;;;;3.14;100.00;96024.84;1056901;28;20030;-80
2020/12/16 01:36:21;;;;;;;24.23;18.75;;;;;;;3.10;100.00;96023.66;1056849;28;20030;-80
2020/12/16 01:36:51;;;;;;;23.70;18.20;;;;;;;3.13;100.00;96028.47;1056949;28;20023;-80
2020/12/16 01:37:22;;;;;;;25.27;18.73;;;;;;;3.10;100.00;96021.03;1056851;28;20023;-80
2020/12/16 01:37:53;;;;;;;20.80;17.38;;;;;;;3.13;100.00;96018.00;1057258;28;20019;-79
2020/12/16 01:38:23;;;;;;;24.05;19.13;;;;;;;3.13;100.00;96023.25;1057124;28;20477;-79
2020/12/16 01:38:54;;;;;;;26.42;18.75;;;;;;;3.12;100.00;96024.25;1058771;28;20049;-80
2020/12/16 01:39:24;;;;;;;28.63;19.70;;;;;;;3.10;100.00;96021.03;1058157;28;20027;-80
2020/12/16 01:39:54;;;;;;;27.00;19.35;;;;;;;3.04;100.00;96019.22;1057256;28;20019;-79
2020/12/16 01:40:25;;;;;;;23.80;17.70;;;;;;;3.00;100.00;96018.03;1057125;28;20027;-79
2020/12/16 01:41:03;;;;;;;23.90;17.83;;;;;;;2.99;100.00;96022.47;1056646;28;20396;-79
2020/12/16 01:41:33;;;;;;;25.13;19.20;;;;;;;2.98;100.00;96025.28;1052459;28;20122;-79
2020/12/16 01:42:03;;;;;;;24.35;18.00;;;;;;;2.93;100.00;96018.81;1052583;28;20078;-79
2020/12/16 01:42:35;;;;;;;21.85;17.58;;;;;;;2.94;100.00;96019.63;1052725;28;20032;-80
2020/12/16 01:43:05;;;;;;;27.92;19.27;;;;;;;2.89;100.00;96022.88;1052678;28;20438;-80
2020/12/16 01:43:36;;;;;;;27.15;19.45;;;;;;;2.88;100.00;96021.25;1053044;28;20054;-80
2020/12/16 01:44:11;;;;;;;22.45;18.23;;;;;;;2.92;100.00;96019.03;1052848;28;20020;-80
2020/12/16 01:44:41;;;;;;;24.10;18.92;;;;;;;2.93;100.00;96026.69;1052879;28;20024;-80
2020/12/16 01:45:17;;;;;;;24.10;18.48;;;;;;;2.96;100.00;96027.28;1052946;28;20047;-80
2020/12/16 01:45:48;;;;;;;24.92;19.15;;;;;;;2.98;100.00;96022.66;1052654;28;20035;-80
2020/12/16 01:46:18;;;;;;;22.13;17.30;;;;;;;2.93;100.00;96029.28;1052711;28;20389;-80
2020/12/16 01:46:50;;;;;;;24.00;18.08;;;;;;;2.93;100.00;96018.81;1052606;28;20028;-80
2020/12/16 01:47:20;;;;;;;25.15;18.70;;;;;;;2.95;100.00;96029.09;1052639;28;20031;-80
2020/12/16 01:47:51;;;;;;;25.80;19.13;;;;;;;2.91;100.00;96026.06;1052651;28;20024;-80
2020/12/16 01:48:22;;;;;;;23.20;18.55;;;;;;;2.95;100.00;96026.47;1048401;28;20020;-80
2020/12/16 01:48:52;;;;;;;28.42;19.63;;;;;;;2.92;100.00;96025.06;1048362;28;20544;-80
2020/12/16 01:49:23;;;;;;;25.73;18.98;;;;;;;2.99;100.00;96025.06;1048299;28;20099;-80
2020/12/16 01:49:54;;;;;;;27.55;20.27;;;;;;;2.97;100.00;96021.88;1052641;28;20111;-80
2020/12/16 01:50:25;;;;;;;24.63;18.65;;;;;;;2.94;100.00;96020.44;1052461;28;20028;-80
2020/12/16 01:50:56;;;;;;;24.67;18.88;;;;;;;2.96;100.00;96022.03;1048424;28;20556;-80
2020/12/16 01:51:26;;;;;;;25.05;18.98;;;;;;;2.89;100.00;96020.25;1048302;28;20040;-80
2020/12/16 01:51:58;;;;;;;24.80;18.90;;;;;;;2.89;100.00;96022.88;1048428;28;20032;-80
2020/12/16 01:52:28;;;;;;;33.00;20.73;;;;;;;2.87;100.00;96030.13;1049051;28;20052;-80
2020/12/16 01:52:59;;;;;;;27.15;20.65;;;;;;;2.85;100.00;96026.91;1048427;28;20032;-80
2020/12/16 01:53:29;;;;;;;26.50;19.33;;;;;;;2.87;100.00;96019.66;1048445;28;20020;-80
2020/12/16 01:53:59;;;;;;;29.85;21.13;;;;;;;2.81;100.00;96017.81;1044282;28;20402;-81
2020/12/16 01:54:32;;;;;;;28.30;20.00;;;;;;;2.79;100.00;96025.06;1040293;28;20433;-81
2020/12/16 01:55:04;;;;;;;26.15;20.02;;;;;;;2.77;100.00;96019.25;1044623;28;20025;-80
2020/12/16 01:55:35;;;;;;;28.60;20.33;;;;;;;2.75;100.00;96018.66;1049078;28;20020;-80
2020/12/16 01:56:05;;;;;;;27.63;19.30;;;;;;;2.75;100.00;96012.59;1045609;28;20040;-80
2020/12/16 01:56:38;;;;;;;28.05;21.15;;;;;;;2.67;100.00;96016.22;1048541;28;20079;-80
2020/12/16 01:57:09;;;;;;;25.10;20.20;;;;;;;2.67;100.00;96018.84;1040138;28;20040;-80
2020/12/16 01:57:46;;;;;;;24.73;19.67;;;;;;;2.76;100.00;96015.03;1040691;28;20459;-79
2020/12/16 01:58:16;;;;;;;25.30;19.23;;;;;;;2.80;100.00;96015.41;1045724;28;20029;-80
2020/12/16 01:58:48;;;;;;;27.30;19.67;;;;;;;2.77;100.00;96021.88;1045483;28;20021;-80
2020/12/16 01:59:18;;;;;;;26.73;19.95;;;;;;;2.74;100.00;96022.28;1050295;28;20044;-80
2020/12/16 01:59:49;;;;;;;28.85;20.63;;;;;;;2.75;100.00;96010.00;1056766;28;20016;-79
2020/12/16 02:00:20;;;;;;;30.23;21.33;;;;;;;2.69;100.00;96011.59;1056874;28;20028;-80
2020/12/16 02:00:52;;;;;;;26.38;19.80;;;;;;;2.74;100.00;96013.63;1057528;28;20313;-80
2020/12/16 02:01:23;;;;;;;24.58;19.50;;;;;;;2.75;100.00;96012.59;1057271;28;20030;-79
2020/12/16 02:01:54;;;;;;;26.35;19.23;;;;;;;2.76;100.00;96016.84;1056854;28;20027;-79
2020/12/16 02:02:24;;;;;;;25.35;19.42;;;;;;;2.77;100.00;96011.41;1056794;28;20169;-79
2020/12/16 02:02:55;;;;;;;28.15;20.23;;;;;;;2.74;100.00;96014.44;1056298;28;20036;-79
2020/12/16 02:03:25;;;;;;;28.83;20.60;;;;;;;2.74;100.00;96014.44;1052540;28;20036;-79
2020/12/16 02:03:56;;;;;;;25.05;20.27;;;;;;;2.71;100.00;96004.34;1056753;28;20028;-79
2020/12/16 02:04:26;;;;;;;25.73;20.30;;;;;;;2.77;100.00;96014.00;1052607;28;20040;-79
2020/12/16 02:04:57;;;;;;;26.08;19.23;;;;;;;2.82;100.00;96018.63;1048441;28;20448;-80
2020/12/16 02:05:27;;;;;;;28.48;19.55;;;;;;;2.81;100.00;96009.97;1048429;28;20028;-79
2020/12/16 02:05:58;;;;;;;24.55;19.55;;;;;;;2.86;100.00;96007.56;1048375;28;20078;-79
2020/12/16 02:06:32;;;;;;;24.40;19.05;;;;;;;2.87;100.00;96014.41;1044319;28;20025;-79
2020/12/16 02:07:06;;;;;;;23.23;18.40;;;;;;;2.85;100.00;96018.25;1044905;28;20025;-79
2020/12/16 02:07:37;;;;;;;23.98;18.90;;;;;;;2.78;100.00;96009.59;1046420;28;20079;-79
2020/12/16 02:08:08;;;;;;;24.23;19.08;;;;;;;2.72;100.00;96013.78;1049545;28;20440;-79
2020/12/16 02:08:39;;;;;;;25.83;19.67;;;;;;;2.72;100.00;96007.75;1044307;28;20383;-79
2020/12/16 02:09:10;;;;;;;28.05;18.95;;;;;;;2.79;100.00;96011.19;1036173;28;20030;-79
2020/12/16 02:09:47;;;;;;;23.52;19.15;;;;;;;2.71;100.00;96014.81;1040423;28;20075;-79
2020/12/16 02:10:19;;;;;;;23.70;18.40;;;;;;;2.72;100.00;96015.59;1046464;28;20120;-79
2020/12/16 02:10:49;;;;;;;26.40;20.50;;;;;;;2.70;100.00;96007.97;1054025;28;20527;-79
2020/12/16 02:11:20;;;;;;;25.42;19.58;;;;;;;2.65;100.00;96005.16;1056230;28;20031;-79
2020/12/16 02:11:50;;;;;;;23.02;18.75;;;;;;;2.67;100.00;96008.38;1056853;28;20061;-79
2020/12/16 02:12:32;;;;;;;22.60;18.10;;;;;;;2.68;100.00;96007.38;1056934;28;20027;-79
2020/12/16 02:13:05;;;;;;;27.92;19.15;;;;;;;2.68;100.00;96003.94;1056896;28;20385;-79
2020/12/16 02:13:35;;;;;;;22.48;18.55;;;;;;;2.71;100.00;96014.00;1057109;28;20173;-79
2020/12/16 02:14:06;;;;;;;26.38;19.70;;;;;;;2.67;100.00;96008.38;1057099;28;20061;-79
2020/12/16 02:14:36;;;;;;;25.17;19.90;;;;;;;2.63;100.00;96007.97;1056797;28;20520;-78
2020/12/16 02:15:07;;;;;;;26.13;19.05;;;;;;;2.67;100.00;96005.75;1057471;28;20023;-81
2020/12/16 02:15:38;;;;;;;24.33;18.65;;;;;;;2.69;100.00;96008.16;1056771;28;20022;-81
2020/12/16 02:16:08;;;;;;;25.15;20.17;;;;;;;2.75;100.00;96002.94;1056817;28;20392;-81
2020/12/16 02:16:40;;;;;;;24.02;19.13;;;;;;;2.72;100.00;96000.72;1056740;28;20476;-81
2020/12/16 02:17:11;;;;;;;28.23;20.73;;;;;;;2.67;100.00;96005.75;1052463;28;20036;-81
2020/12/16 02:17:41;;;;;;;26.25;19.42;;;;;;;2.71;100.00;96006.94;1052454;28;20035;-80
2020/12/16 02:18:11;;;;;;;25.40;19.75;;;;;;;2.73;100.00;96010.19;1052642;28;20020;-81
2020/12/16 02:18:46;;;;;;;24.75;19.02;;;;;;;2.71;100.00;96011.38;1052424;28;20027;-81
2020/12/16 02:19:18;;;;;;;25.67;18.92;;;;;;;2.71;100.00;96006.16;1056805;28;20026;-81
2020/12/16 02:19:56;;;;;;;28.90;19.65;;;;;;;2.69;100.00;96013.41;1055983;28;20027;-81
2020/12/16 02:20:26;;;;;;;24.20;19.55;;;;;;;2.71;100.00;96012.19;1054248;28;20083;-80
2020/12/16 02:20:57;;;;;;;23.08;18.55;;;;;;;2.70;100.00;96007.97;1056763;28;20016;-81
2020/12/16 02:21:27;;;;;;;23.85;18.48;;;;;;;2.63;100.00;96007.19;1052257;28;20078;-81
2020/12/16 02:21:58;;;;;;;24.30;18.48;;;;;;;2.68;100.00;96017.03;1052564;28;20093;-81